Главная страница
METAR-TAF:

METAR-TAF

Аэропорты :

Шармеллек

Хевиз, Венгрия

широта: 46-41-11N, долгота: 017-09-33E, высота над уровнем моря: 124 м

Текущие метеонаблюдения

Эта сводка был подготовлена 27 минут назад, в 06:15 UTC
Ветер 10 Узел от северный
Температура 9°C
Влажность 81%
Давление 1026 hPa
Видимость 10 км и более
Рассеянная облачность на высоте 4000 фута

METAR: LHSM 220615Z 36010KT 9999 BKN040 09/06 Q1026

Время: 08:42 (06:42 UTC)

Прогноз

Эта сводка был подготовлена 1 час и 27 минут назад, в 05:15 UTC
Прогноз действительный с 22-го 06 UTC до 22-го 15 UTC
Ветер 12 Узел от северный
Видимость 10 км и более
Рассеянная облачность на высоте 3000 фута

TAF: LHSM 220515Z 2206/2215 36012KT 9999 BKN030

Метеонаблюдения и прогнозы для более 4000 аэропортов (сводки METAR и TAF).

Имеющиеся станции представлены на карте желтыми и красными точками.

Чтобы увидеть название станции, наведите на нее мышь.

Затем щелкните, чтобы увидеть метеонаблюдения и метеопрогнозы.

Управление картой: чтобы увеличить масштаб, щелкните зеленые кнопки с черным крестиком; чтобы уменьшить масштаб, щелкните зеленую кнопку с тире; для просмотра соседних карт щелкайте зеленые стрелки.


METAR-TAF: